Time;durP1;ratioP1;P1;durP2;ratioP2;P2;SDS_P1;SDS_P2;PMS_P1;PMS_P2;Temp;Humidity;BMP_temperature;BMP_pressure;BME280_temperature;BME280_humidity;BME280_pressure;Samples;Min_cycle;Max_cycle;Signal;HPM_P1;HPM_P2
2022/10/16 00:01:59;;;;;;;14.07;13.27;;;16.80;92.50;;;;;;4950919;28;20562;-78
2022/10/16 00:04:26;;;;;;;14.13;13.33;;;16.70;92.40;;;;;;4950254;29;20481;-78
2022/10/16 00:06:54;;;;;;;13.90;13.20;;;16.70;92.60;;;;;;4952550;28;20491;-78
2022/10/16 00:09:21;;;;;;;13.23;12.53;;;16.70;92.60;;;;;;4951730;28;20983;-78
2022/10/16 00:11:47;;;;;;;12.83;12.23;;;16.70;92.60;;;;;;4951043;28;20479;-78
2022/10/16 00:14:15;;;;;;;14.10;13.40;;;16.70;92.30;;;;;;4953238;29;20865;-78
2022/10/16 00:16:43;;;;;;;13.83;12.90;;;16.70;92.40;;;;;;4954790;28;20464;-78
2022/10/16 00:19:11;;;;;;;13.20;12.40;;;16.70;92.30;;;;;;4962449;29;20546;-78
2022/10/16 00:21:38;;;;;;;13.87;12.83;;;16.70;92.40;;;;;;4963386;28;20471;-79
2022/10/16 00:24:10;;;;;;;13.40;12.60;;;16.70;92.40;;;;;;4963080;28;20510;-78
2022/10/16 00:26:39;;;;;;;16.87;13.67;;;16.60;92.50;;;;;;4959420;28;20841;-78
2022/10/16 00:29:06;;;;;;;13.90;13.20;;;16.60;92.70;;;;;;4951778;28;20464;-78
2022/10/16 00:31:33;;;;;;;14.43;13.30;;;16.60;92.70;;;;;;4950820;28;20577;-78
2022/10/16 00:34:01;;;;;;;13.97;13.07;;;16.50;93.10;;;;;;4949150;28;20494;-78
2022/10/16 00:36:28;;;;;;;14.67;13.77;;;16.50;93.20;;;;;;4956241;28;20586;-78
2022/10/16 00:38:57;;;;;;;14.27;13.37;;;16.50;93.40;;;;;;4954446;29;20463;-78
2022/10/16 00:41:26;;;;;;;13.70;12.87;;;16.40;93.40;;;;;;4951859;28;20502;-78
2022/10/16 00:43:54;;;;;;;13.20;12.40;;;16.40;93.40;;;;;;4949339;28;20483;-78
2022/10/16 00:46:24;;;;;;;13.50;12.67;;;16.50;93.20;;;;;;4948896;28;20456;-78
2022/10/16 00:48:55;;;;;;;14.13;13.23;;;16.50;93.20;;;;;;4943495;29;20580;-78
2022/10/16 00:51:25;;;;;;;14.30;13.03;;;16.40;93.10;;;;;;4952352;28;20459;-78
2022/10/16 00:53:53;;;;;;;13.50;12.60;;;16.40;93.20;;;;;;4953935;29;20641;-78
2022/10/16 00:56:20;;;;;;;13.10;12.40;;;16.40;93.20;;;;;;4948024;28;20468;-78
2022/10/16 00:58:48;;;;;;;13.20;12.40;;;16.40;93.30;;;;;;4946895;28;20563;-78
2022/10/16 01:01:15;;;;;;;13.87;12.50;;;16.40;93.20;;;;;;4948896;29;21020;-78
2022/10/16 01:03:42;;;;;;;12.90;12.10;;;16.40;93.20;;;;;;4952227;29;20594;-78
2022/10/16 01:06:24;;;;;;;13.80;12.70;;;16.40;93.30;;;;;;4950402;28;20463;-78
2022/10/16 01:09:12;;;;;;;13.20;12.50;;;16.40;93.30;;;;;;4950378;29;20456;-78
2022/10/16 01:11:46;;;;;;;12.93;12.00;;;16.40;93.20;;;;;;4950594;29;20562;-78
2022/10/16 01:14:21;;;;;;;13.80;13.00;;;16.40;93.30;;;;;;4948532;28;20487;-78
2022/10/16 01:16:54;;;;;;;13.67;12.87;;;16.30;93.50;;;;;;4951737;29;20973;-78
2022/10/16 01:19:32;;;;;;;13.70;12.90;;;16.40;93.40;;;;;;4949896;29;20509;-78
2022/10/16 01:22:01;;;;;;;13.00;12.27;;;16.40;93.00;;;;;;4936017;29;20467;-78
2022/10/16 01:24:34;;;;;;;13.33;12.53;;;16.40;93.10;;;;;;4942225;29;20586;-78
2022/10/16 01:27:26;;;;;;;13.10;12.30;;;16.40;93.30;;;;;;4950832;29;20462;-78
2022/10/16 01:29:55;;;;;;;13.67;12.57;;;16.30;93.60;;;;;;4942675;28;21298;-78
2022/10/16 01:32:29;;;;;;;13.27;12.20;;;16.30;93.70;;;;;;4950529;28;20459;-78
2022/10/16 01:35:01;;;;;;;13.00;12.40;;;16.20;93.80;;;;;;4948844;28;20495;-78
2022/10/16 01:37:35;;;;;;;14.23;13.10;;;16.40;93.30;;;;;;4951059;28;20498;-78
2022/10/16 01:40:06;;;;;;;13.30;12.60;;;16.40;93.00;;;;;;4944167;28;20474;-78
2022/10/16 01:42:39;;;;;;;13.17;12.57;;;16.40;93.00;;;;;;4950476;29;20460;-78
2022/10/16 01:45:08;;;;;;;13.60;12.60;;;16.40;93.00;;;;;;4947325;28;20474;-78
2022/10/16 01:47:37;;;;;;;14.07;12.80;;;16.40;92.70;;;;;;4950507;29;20459;-78
2022/10/16 01:50:07;;;;;;;13.87;12.90;;;16.50;92.30;;;;;;4947921;28;20456;-78
2022/10/16 01:52:37;;;;;;;13.90;12.67;;;16.50;91.80;;;;;;4949956;28;20452;-78
2022/10/16 01:55:08;;;;;;;13.37;12.60;;;16.50;91.90;;;;;;4947131;28;20501;-78
2022/10/16 01:57:40;;;;;;;13.93;13.00;;;16.50;92.00;;;;;;4950782;28;20475;-78
2022/10/16 02:00:12;;;;;;;12.57;12.00;;;16.60;91.90;;;;;;4945700;28;20451;-78
2022/10/16 02:02:41;;;;;;;13.97;13.07;;;16.50;92.10;;;;;;4948047;29;20491;-78
2022/10/16 02:05:15;;;;;;;13.00;12.03;;;16.40;92.30;;;;;;4947063;29;20483;-78
2022/10/16 02:07:43;;;;;;;13.17;12.47;;;16.50;92.30;;;;;;4949119;29;20520;-78
2022/10/16 02:10:10;;;;;;;13.13;12.30;;;16.50;92.30;;;;;;4946016;29;20488;-78
2022/10/16 02:12:43;;;;;;;14.17;12.90;;;16.50;92.50;;;;;;4951342;29;20464;-78
2022/10/16 02:15:10;;;;;;;13.07;12.23;;;16.50;92.30;;;;;;4947679;29;20479;-78
2022/10/16 02:17:37;;;;;;;12.30;11.70;;;16.50;92.30;;;;;;4950790;28;20507;-78
2022/10/16 02:20:05;;;;;;;11.63;11.03;;;16.50;92.50;;;;;;4946511;28;20470;-78
2022/10/16 02:22:39;;;;;;;12.73;11.97;;;16.40;92.50;;;;;;4950056;29;20464;-78
2022/10/16 02:25:10;;;;;;;12.40;11.70;;;16.50;92.30;;;;;;4949714;28;20999;-78
2022/10/16 02:27:45;;;;;;;12.17;11.67;;;16.50;92.00;;;;;;4950187;28;20473;-78
2022/10/16 02:30:17;;;;;;;13.30;12.30;;;16.50;92.10;;;;;;4948779;28;20458;-78
2022/10/16 02:32:47;;;;;;;11.50;10.90;;;16.60;91.80;;;;;;4949046;28;20462;-78
2022/10/16 02:35:16;;;;;;;13.13;12.43;;;16.60;91.60;;;;;;4954857;29;20539;-78
2022/10/16 02:37:43;;;;;;;12.73;12.13;;;16.60;91.60;;;;;;4952128;28;20469;-78
2022/10/16 02:40:12;;;;;;;13.37;12.40;;;16.60;91.70;;;;;;4953036;29;21121;-78
2022/10/16 02:42:41;;;;;;;15.63;14.13;;;16.50;91.70;;;;;;4952452;28;20459;-78
2022/10/16 02:45:11;;;;;;;18.10;17.03;;;16.60;92.00;;;;;;4952421;28;20483;-78
2022/10/16 02:47:38;;;;;;;17.97;16.93;;;16.60;91.60;;;;;;4954084;29;20472;-78
2022/10/16 02:50:06;;;;;;;12.53;11.83;;;16.60;91.80;;;;;;4952880;28;20460;-78
2022/10/16 02:52:33;;;;;;;13.20;12.03;;;16.60;91.80;;;;;;4953046;28;20561;-78
2022/10/16 02:55:00;;;;;;;15.67;14.53;;;16.60;91.90;;;;;;4953218;29;21202;-78
2022/10/16 02:57:27;;;;;;;13.37;12.47;;;16.50;92.10;;;;;;4953082;28;20466;-78
2022/10/16 02:59:54;;;;;;;12.53;11.83;;;16.50;92.30;;;;;;4951733;28;20836;-78
2022/10/16 03:02:22;;;;;;;12.60;11.90;;;16.50;92.30;;;;;;4955298;29;20478;-78
2022/10/16 03:04:49;;;;;;;13.30;12.70;;;16.50;92.30;;;;;;4952084;28;21179;-78
2022/10/16 03:07:16;;;;;;;16.90;16.00;;;16.60;92.00;;;;;;4953411;29;20497;-78
2022/10/16 03:09:43;;;;;;;12.90;12.20;;;16.50;92.00;;;;;;4950201;28;20474;-78
2022/10/16 03:12:11;;;;;;;11.97;11.13;;;16.50;92.10;;;;;;4953432;29;20469;-78
2022/10/16 03:14:39;;;;;;;12.97;12.27;;;16.50;92.10;;;;;;4950478;28;21016;-78
2022/10/16 03:17:06;;;;;;;12.80;12.20;;;16.50;92.30;;;;;;4953707;29;20459;-78
2022/10/16 03:19:35;;;;;;;12.80;12.00;;;16.50;92.10;;;;;;4951842;28;20495;-78
2022/10/16 03:22:02;;;;;;;12.57;11.87;;;16.40;92.30;;;;;;4952253;28;20545;-78
2022/10/16 03:24:29;;;;;;;13.13;12.20;;;16.40;92.60;;;;;;4951509;29;20483;-78
2022/10/16 03:26:56;;;;;;;13.70;13.10;;;16.40;92.70;;;;;;4953369;29;20463;-78
2022/10/16 03:29:23;;;;;;;14.03;13.23;;;16.40;92.70;;;;;;4950987;29;20459;-78
2022/10/16 03:31:50;;;;;;;12.80;12.10;;;16.40;92.60;;;;;;4951400;28;20835;-78
2022/10/16 03:34:17;;;;;;;12.67;12.03;;;16.40;92.60;;;;;;4951397;29;20977;-78
2022/10/16 03:36:45;;;;;;;16.00;15.10;;;16.40;92.60;;;;;;4950911;28;20475;-78
2022/10/16 03:39:12;;;;;;;14.83;13.93;;;16.40;92.60;;;;;;4950370;28;20471;-78
2022/10/16 03:41:39;;;;;;;14.00;12.80;;;16.40;92.60;;;;;;4950267;28;20530;-78
2022/10/16 03:44:06;;;;;;;12.73;12.03;;;16.40;92.70;;;;;;4951783;28;21075;-78
2022/10/16 03:46:33;;;;;;;13.53;12.37;;;16.40;92.60;;;;;;4952217;29;20466;-78
2022/10/16 03:49:00;;;;;;;13.23;12.43;;;16.30;92.90;;;;;;4952198;28;20464;-78
2022/10/16 03:51:27;;;;;;;12.53;11.73;;;16.30;93.00;;;;;;4962952;29;20538;-78
2022/10/16 03:53:55;;;;;;;12.83;12.23;;;16.20;93.00;;;;;;4964802;28;20478;-78
2022/10/16 03:56:22;;;;;;;12.97;12.37;;;16.20;93.10;;;;;;4966474;28;20483;-78
2022/10/16 03:58:49;;;;;;;12.53;11.83;;;16.20;93.20;;;;;;4963205;28;20470;-78
2022/10/16 04:01:16;;;;;;;12.60;11.90;;;16.20;93.10;;;;;;4954337;29;20473;-78
2022/10/16 04:03:43;;;;;;;14.37;13.40;;;16.20;93.00;;;;;;4951196;29;20571;-78
2022/10/16 04:06:09;;;;;;;13.10;12.40;;;16.20;93.10;;;;;;4949572;28;20491;-78
2022/10/16 04:08:36;;;;;;;12.87;12.27;;;16.20;93.00;;;;;;4950054;28;20466;-78
2022/10/16 04:11:05;;;;;;;12.73;12.00;;;16.20;93.00;;;;;;4949929;28;20462;-78
2022/10/16 04:13:32;;;;;;;12.50;11.60;;;16.20;93.10;;;;;;4951929;28;20455;-78
2022/10/16 04:15:58;;;;;;;12.37;11.47;;;16.10;93.40;;;;;;4950922;29;20491;-78
2022/10/16 04:18:27;;;;;;;12.10;11.60;;;16.10;93.40;;;;;;4948396;28;20588;-78
2022/10/16 04:20:53;;;;;;;12.43;11.60;;;16.10;93.40;;;;;;4950358;29;20906;-78
2022/10/16 04:23:22;;;;;;;11.63;10.93;;;16.10;93.50;;;;;;4952293;28;21052;-78
2022/10/16 04:25:49;;;;;;;12.47;11.67;;;16.10;93.50;;;;;;4949542;29;20460;-78
2022/10/16 04:28:17;;;;;;;12.20;11.20;;;16.10;93.50;;;;;;4950619;28;20478;-78
2022/10/16 04:30:44;;;;;;;11.53;10.80;;;16.10;93.50;;;;;;4948429;28;20463;-78
2022/10/16 04:33:12;;;;;;;18.03;17.13;;;16.00;93.50;;;;;;4951344;28;21001;-78
2022/10/16 04:35:39;;;;;;;15.97;15.13;;;16.10;93.60;;;;;;4950730;28;20495;-78
2022/10/16 04:38:06;;;;;;;11.80;11.10;;;16.00;93.60;;;;;;4951475;29;20964;-78
2022/10/16 04:40:35;;;;;;;12.17;11.07;;;16.10;93.60;;;;;;4950969;28;20898;-78
2022/10/16 04:43:02;;;;;;;12.47;11.47;;;16.00;93.90;;;;;;4934639;29;20901;-78
2022/10/16 04:45:31;;;;;;;11.57;10.73;;;16.00;93.90;;;;;;4949893;29;20575;-78
2022/10/16 04:47:58;;;;;;;11.60;10.70;;;16.00;93.80;;;;;;4950550;28;20929;-78
2022/10/16 04:50:25;;;;;;;11.23;10.20;;;16.00;93.60;;;;;;4950648;28;20471;-78
2022/10/16 04:52:52;;;;;;;11.90;11.20;;;16.10;93.80;;;;;;4950738;28;20455;-78
2022/10/16 04:55:19;;;;;;;11.27;10.60;;;16.10;93.50;;;;;;4948800;29;21185;-78
2022/10/16 04:57:46;;;;;;;10.80;10.30;;;16.10;93.40;;;;;;4946028;28;20550;-78
2022/10/16 05:00:13;;;;;;;12.00;10.93;;;16.10;93.30;;;;;;4948970;28;20482;-78
2022/10/16 05:02:42;;;;;;;11.80;11.10;;;16.10;93.20;;;;;;4949456;28;20459;-78
2022/10/16 05:05:09;;;;;;;11.30;10.27;;;16.10;93.40;;;;;;4949618;28;20471;-78
2022/10/16 05:07:36;;;;;;;13.07;12.30;;;16.10;93.40;;;;;;4951370;29;20463;-78
2022/10/16 05:10:03;;;;;;;12.80;11.87;;;16.10;93.50;;;;;;4949678;29;20464;-78
2022/10/16 05:12:30;;;;;;;11.43;10.73;;;16.10;93.40;;;;;;4948910;28;20502;-78
2022/10/16 05:14:58;;;;;;;11.43;10.73;;;16.10;93.40;;;;;;4948264;28;21214;-78
2022/10/16 05:17:25;;;;;;;10.50;10.00;;;16.10;93.50;;;;;;4949733;28;20474;-78
2022/10/16 05:19:53;;;;;;;12.30;11.57;;;16.10;93.40;;;;;;4949189;29;20513;-78
2022/10/16 05:22:20;;;;;;;12.20;11.50;;;16.10;93.40;;;;;;4947195;28;20471;-76
2022/10/16 05:24:47;;;;;;;12.80;11.90;;;16.10;93.40;;;;;;4951230;28;20539;-78
2022/10/16 05:27:18;;;;;;;13.77;12.80;;;16.10;93.50;;;;;;4954270;28;20935;-78
2022/10/16 05:29:46;;;;;;;11.70;11.10;;;16.10;93.40;;;;;;4949852;29;20636;-79
2022/10/16 05:32:13;;;;;;;13.70;12.80;;;16.10;93.40;;;;;;4945448;29;20463;-79
2022/10/16 05:34:40;;;;;;;12.93;11.73;;;16.10;93.30;;;;;;4944102;28;20552;-77
2022/10/16 05:37:09;;;;;;;14.63;13.83;;;16.10;93.40;;;;;;4946578;29;20455;-76
2022/10/16 05:39:36;;;;;;;15.27;14.37;;;16.00;93.50;;;;;;4950400;29;20957;-77
2022/10/16 05:42:03;;;;;;;13.10;12.00;;;16.00;93.60;;;;;;4943808;28;21159;-77
2022/10/16 05:44:31;;;;;;;16.00;14.67;;;16.00;93.80;;;;;;4950096;29;20659;-78
2022/10/16 05:46:57;;;;;;;12.53;11.87;;;15.90;93.60;;;;;;4950852;29;20483;-76
2022/10/16 05:49:25;;;;;;;17.17;16.13;;;16.00;93.80;;;;;;4950005;29;20991;-76
2022/10/16 05:51:51;;;;;;;12.63;12.03;;;15.90;93.60;;;;;;4948815;28;20460;-78
2022/10/16 05:54:20;;;;;;;16.37;15.37;;;16.00;93.50;;;;;;4948403;28;20494;-78
2022/10/16 05:56:47;;;;;;;14.33;13.53;;;16.00;93.60;;;;;;4951873;29;20459;-77
2022/10/16 05:59:13;;;;;;;12.40;11.53;;;16.00;93.50;;;;;;4942346;28;20890;-77
2022/10/16 06:01:40;;;;;;;17.93;17.03;;;16.00;93.50;;;;;;4949690;29;20587;-79
2022/10/16 06:04:08;;;;;;;12.53;11.53;;;16.00;93.50;;;;;;4943276;28;20487;-77
2022/10/16 06:06:36;;;;;;;15.83;14.73;;;16.00;93.80;;;;;;4951774;29;20459;-78
2022/10/16 06:09:04;;;;;;;13.77;12.90;;;16.00;93.30;;;;;;4943002;28;20470;-77
2022/10/16 06:11:33;;;;;;;15.33;14.30;;;16.00;93.50;;;;;;4932391;29;20464;-78
2022/10/16 06:14:06;;;;;;;15.03;14.20;;;16.00;93.40;;;;;;4945379;28;20574;-78
2022/10/16 06:16:34;;;;;;;12.27;11.57;;;16.00;93.40;;;;;;4949585;28;20475;-78
2022/10/16 06:19:01;;;;;;;14.55;13.63;;;16.00;93.40;;;;;;4948338;29;20473;-78
2022/10/16 06:21:29;;;;;;;13.70;12.60;;;16.20;92.90;;;;;;4949020;28;20278;-78
2022/10/16 06:23:57;;;;;;;14.40;13.60;;;16.20;92.70;;;;;;4949331;29;20487;-78
2022/10/16 06:26:26;;;;;;;14.43;13.07;;;16.20;92.70;;;;;;4950659;29;20470;-78
2022/10/16 06:28:56;;;;;;;24.65;22.67;;;16.20;92.70;;;;;;4946588;29;20483;-77
2022/10/16 06:31:27;;;;;;;15.83;14.33;;;16.20;92.90;;;;;;4951023;29;20672;-76
2022/10/16 06:33:54;;;;;;;13.13;12.47;;;16.20;92.90;;;;;;4947396;28;20491;-76
2022/10/16 06:36:21;;;;;;;12.23;11.53;;;16.20;92.80;;;;;;4948492;28;20856;-77
2022/10/16 06:38:48;;;;;;;13.27;12.30;;;16.30;92.60;;;;;;4947475;28;20822;-76
2022/10/16 06:41:17;;;;;;;16.03;15.17;;;16.30;92.50;;;;;;4947342;28;20494;-75
2022/10/16 06:43:45;;;;;;;17.90;16.90;;;16.30;92.50;;;;;;4948770;28;20580;-76
2022/10/16 06:46:15;;;;;;;18.33;17.23;;;16.30;92.50;;;;;;4947952;28;20464;-75
2022/10/16 06:48:42;;;;;;;17.77;16.77;;;16.40;92.30;;;;;;4948983;29;20467;-77
2022/10/16 06:51:11;;;;;;;12.37;11.37;;;16.50;92.10;;;;;;4950079;28;21127;-78
2022/10/16 06:53:42;;;;;;;13.43;12.63;;;16.60;91.70;;;;;;4951140;29;20922;-79
2022/10/16 06:56:09;;;;;;;25.80;24.43;;;16.60;91.50;;;;;;4952312;28;20507;-79
2022/10/16 06:58:36;;;;;;;14.20;13.40;;;16.70;91.30;;;;;;4956305;28;20520;-80
2022/10/16 07:01:03;;;;;;;29.47;27.53;;;16.80;91.10;;;;;;4964844;28;20463;-79
2022/10/16 07:03:31;;;;;;;13.20;12.50;;;16.80;90.90;;;;;;4966222;28;20566;-77
2022/10/16 07:06:02;;;;;;;15.77;14.90;;;16.90;90.40;;;;;;4956870;28;20924;-78
2022/10/16 07:08:31;;;;;;;13.57;12.80;;;17.00;90.30;;;;;;4960989;28;20580;-78
2022/10/16 07:11:01;;;;;;;16.13;15.20;;;17.10;90.00;;;;;;4952907;28;21142;-79
2022/10/16 07:13:28;;;;;;;16.40;15.60;;;17.20;89.60;;;;;;4942144;28;20459;-76
2022/10/16 07:15:55;;;;;;;24.27;23.17;;;17.30;89.40;;;;;;4946432;28;20489;-76
2022/10/16 07:18:26;;;;;;;22.63;21.60;;;17.50;88.90;;;;;;4948087;28;20469;-78
2022/10/16 07:20:54;;;;;;;16.37;15.57;;;17.50;88.40;;;;;;4952450;28;20952;-76
2022/10/16 07:23:21;;;;;;;16.00;15.00;;;17.60;88.20;;;;;;4950835;29;20470;-76
2022/10/16 07:25:55;;;;;;;29.20;27.63;;;17.60;88.00;;;;;;4952395;29;20479;-76
2022/10/16 07:28:22;;;;;;;22.73;21.20;;;17.70;87.90;;;;;;4946443;29;20490;-77
2022/10/16 07:30:49;;;;;;;16.37;15.40;;;17.70;87.60;;;;;;4951758;29;20841;-77
2022/10/16 07:33:17;;;;;;;22.20;21.00;;;17.70;87.60;;;;;;4949648;28;21328;-77
2022/10/16 07:35:49;;;;;;;15.87;14.87;;;17.60;87.50;;;;;;4949853;28;23041;-77
2022/10/16 07:38:18;;;;;;;16.53;15.43;;;17.70;87.60;;;;;;4945516;29;20463;-77
2022/10/16 07:40:45;;;;;;;20.57;19.17;;;17.60;87.80;;;;;;4946196;29;20495;-77
2022/10/16 07:43:12;;;;;;;19.63;18.53;;;17.70;87.70;;;;;;4949567;28;20491;-77
2022/10/16 07:45:48;;;;;;;16.63;15.43;;;17.70;87.60;;;;;;4944809;29;21005;-77
2022/10/16 07:48:15;;;;;;;18.40;17.37;;;17.80;87.50;;;;;;4945656;28;20981;-77
2022/10/16 07:50:42;;;;;;;15.93;14.83;;;17.80;87.20;;;;;;4951049;29;20559;-77
2022/10/16 07:53:09;;;;;;;20.40;19.20;;;17.90;87.10;;;;;;4953049;29;20460;-77
2022/10/16 07:55:37;;;;;;;16.50;15.50;;;18.00;86.80;;;;;;4951513;29;20534;-77
2022/10/16 07:58:04;;;;;;;26.27;24.80;;;18.00;86.60;;;;;;4950188;29;20459;-77
2022/10/16 08:00:31;;;;;;;15.27;14.40;;;18.10;86.50;;;;;;4945622;29;20463;-77
2022/10/16 08:03:00;;;;;;;19.13;18.03;;;18.20;86.30;;;;;;4936768;29;20456;-77
2022/10/16 08:05:27;;;;;;;18.40;17.17;;;18.30;86.20;;;;;;4941007;28;20484;-77
2022/10/16 08:07:54;;;;;;;19.70;18.50;;;18.50;85.80;;;;;;4951604;28;20471;-77
2022/10/16 08:10:23;;;;;;;18.90;17.90;;;18.70;84.60;;;;;;4946404;29;20495;-77
2022/10/16 08:12:51;;;;;;;21.50;20.50;;;18.80;84.20;;;;;;4950817;29;20460;-77
2022/10/16 08:15:18;;;;;;;25.00;23.60;;;18.90;83.70;;;;;;4951779;29;20488;-77
2022/10/16 08:17:54;;;;;;;18.80;18.00;;;19.10;83.20;;;;;;4950834;28;20542;-77
2022/10/16 08:20:21;;;;;;;24.43;23.00;;;19.30;82.20;;;;;;4950162;28;20469;-77
2022/10/16 08:22:48;;;;;;;19.40;18.30;;;19.50;81.40;;;;;;4944075;28;20466;-77
2022/10/16 08:25:15;;;;;;;23.70;22.37;;;19.60;80.50;;;;;;4948986;28;20483;-77
2022/10/16 08:27:42;;;;;;;25.63;24.27;;;19.70;79.60;;;;;;4952231;28;20470;-77
2022/10/16 08:30:12;;;;;;;23.40;22.40;;;19.80;79.40;;;;;;4950880;29;20967;-77
2022/10/16 08:32:39;;;;;;;41.30;39.43;;;20.00;79.10;;;;;;4952083;28;20466;-77
2022/10/16 08:35:07;;;;;;;21.93;20.77;;;20.20;78.00;;;;;;4949477;28;20487;-77
2022/10/16 08:37:34;;;;;;;25.57;24.33;;;20.30;77.50;;;;;;4952195;28;20522;-77
2022/10/16 08:40:01;;;;;;;37.40;35.50;;;20.30;77.10;;;;;;4949738;29;20466;-78
2022/10/16 08:42:40;;;;;;;26.37;25.17;;;20.40;77.00;;;;;;4949410;29;20475;-77
2022/10/16 08:45:34;;;;;;;27.47;26.00;;;20.50;77.20;;;;;;4949529;28;20483;-77
2022/10/16 08:48:10;;;;;;;27.50;26.23;;;20.50;77.20;;;;;;4945408;28;20456;-77
2022/10/16 08:50:39;;;;;;;28.77;27.40;;;20.60;76.90;;;;;;4945865;28;20478;-77
2022/10/16 08:53:07;;;;;;;46.83;44.93;;;20.60;76.00;;;;;;4949227;28;20586;-77
2022/10/16 08:55:39;;;;;;;25.00;23.90;;;20.60;76.00;;;;;;4942136;28;20846;-77
2022/10/16 08:58:13;;;;;;;22.43;21.40;;;20.60;76.00;;;;;;4943090;28;20551;-77
2022/10/16 09:00:44;;;;;;;30.30;28.70;;;20.80;75.40;;;;;;4946000;28;20485;-77
2022/10/16 09:03:24;;;;;;;28.07;26.67;;;20.80;75.20;;;;;;4950767;28;20491;-77
2022/10/16 09:06:04;;;;;;;23.93;22.73;;;20.80;75.00;;;;;;4949575;29;21097;-77
2022/10/16 09:08:42;;;;;;;28.10;26.70;;;20.90;74.90;;;;;;4945557;29;20473;-77
2022/10/16 09:11:17;;;;;;;22.50;21.20;;;20.90;74.70;;;;;;4947380;28;20477;-77
2022/10/16 09:13:50;;;;;;;25.10;23.63;;;21.00;74.80;;;;;;4946516;29;20486;-77
2022/10/16 09:16:25;;;;;;;23.33;22.23;;;21.10;74.40;;;;;;4950924;28;20491;-77
2022/10/16 09:19:00;;;;;;;29.90;28.47;;;21.10;74.20;;;;;;4950238;29;20514;-77
2022/10/16 09:21:30;;;;;;;27.07;25.80;;;21.20;74.10;;;;;;4948666;28;20479;-77
2022/10/16 09:24:00;;;;;;;25.57;24.27;;;21.30;73.40;;;;;;4949949;29;20483;-77
2022/10/16 09:26:27;;;;;;;30.67;28.97;;;21.30;73.40;;;;;;4950679;29;20494;-77
2022/10/16 09:28:54;;;;;;;28.87;27.57;;;21.30;73.70;;;;;;4948641;28;20486;-77
2022/10/16 09:31:24;;;;;;;28.50;27.00;;;21.30;74.20;;;;;;4948331;28;20901;-77
2022/10/16 09:33:55;;;;;;;33.70;32.10;;;21.30;74.20;;;;;;4947606;29;20484;-77
2022/10/16 09:36:26;;;;;;;29.00;27.10;;;21.30;74.50;;;;;;4944575;29;20922;-77
2022/10/16 09:39:08;;;;;;;26.00;24.77;;;21.30;74.80;;;;;;4949908;28;20586;-77
2022/10/16 09:41:37;;;;;;;33.93;32.30;;;21.40;74.00;;;;;;4942610;28;20487;-77
2022/10/16 09:44:15;;;;;;;28.20;26.80;;;21.40;74.00;;;;;;4945119;28;20491;-77
2022/10/16 09:46:43;;;;;;;40.10;37.97;;;21.50;73.50;;;;;;4940517;28;20464;-77
2022/10/16 09:49:22;;;;;;;45.80;43.60;;;21.60;73.50;;;;;;4938316;29;20464;-77
2022/10/16 09:51:49;;;;;;;29.07;27.63;;;21.60;72.70;;;;;;4944320;29;20459;-77
2022/10/16 09:54:18;;;;;;;26.30;24.90;;;21.70;72.70;;;;;;4950621;28;20483;-77
2022/10/16 09:56:49;;;;;;;25.33;23.93;;;21.80;72.80;;;;;;4950145;29;20482;-78
2022/10/16 09:59:20;;;;;;;30.33;28.83;;;22.00;71.90;;;;;;4944574;29;20548;-77
2022/10/16 10:01:51;;;;;;;27.43;25.93;;;22.10;71.40;;;;;;4951186;29;21170;-76
2022/10/16 10:04:19;;;;;;;27.10;25.80;;;22.30;71.40;;;;;;4946957;29;20487;-77
2022/10/16 10:06:49;;;;;;;28.80;27.23;;;22.40;71.00;;;;;;4950945;29;20460;-77
2022/10/16 10:09:19;;;;;;;26.17;24.87;;;22.50;70.20;;;;;;4948622;28;20844;-77
2022/10/16 10:11:50;;;;;;;26.80;25.60;;;22.60;70.10;;;;;;4953288;29;20491;-77
2022/10/16 10:14:27;;;;;;;27.33;26.03;;;22.70;69.30;;;;;;4954668;28;20816;-77
2022/10/16 10:17:15;;;;;;;30.40;29.00;;;22.90;68.80;;;;;;4953656;29;20491;-77
2022/10/16 10:19:50;;;;;;;32.03;30.53;;;23.00;68.50;;;;;;4950603;28;20539;-77
2022/10/16 10:22:32;;;;;;;26.37;25.07;;;23.10;67.90;;;;;;4945624;28;20454;-77
2022/10/16 10:25:20;;;;;;;36.77;34.67;;;23.20;67.40;;;;;;4949673;28;20573;-74
2022/10/16 10:28:16;;;;;;;25.90;24.67;;;23.30;66.80;;;;;;4945904;28;20458;-77
2022/10/16 10:30:53;;;;;;;25.00;23.70;;;23.40;66.50;;;;;;4942767;29;20550;-77
2022/10/16 10:33:29;;;;;;;24.67;23.47;;;23.50;66.20;;;;;;4947288;28;20569;-77
2022/10/16 10:36:06;;;;;;;26.03;24.83;;;23.60;65.70;;;;;;4944548;29;20462;-77
2022/10/16 10:38:42;;;;;;;34.97;33.27;;;23.70;65.50;;;;;;4947448;28;20494;-77
2022/10/16 10:41:25;;;;;;;27.03;25.77;;;23.80;65.40;;;;;;4949057;29;20764;-78
2022/10/16 10:44:02;;;;;;;30.57;28.97;;;23.90;65.20;;;;;;4949727;29;20471;-77
2022/10/16 10:46:35;;;;;;;29.97;28.37;;;24.20;64.50;;;;;;4948152;29;20452;-77
2022/10/16 10:49:27;;;;;;;30.67;28.90;;;24.30;63.80;;;;;;4944787;28;20463;-77
2022/10/16 10:52:08;;;;;;;29.43;27.77;;;24.40;63.40;;;;;;4943989;28;20474;-77
2022/10/16 10:54:42;;;;;;;27.30;26.00;;;24.50;63.60;;;;;;4942645;28;20497;-78
2022/10/16 10:57:18;;;;;;;30.37;28.73;;;24.60;63.20;;;;;;4948827;28;20573;-77
2022/10/16 11:00:04;;;;;;;32.17;30.57;;;24.70;63.00;;;;;;4953100;28;20459;-78
2022/10/16 11:02:38;;;;;;;27.93;26.43;;;24.70;62.00;;;;;;4952496;29;20459;-78
2022/10/16 11:05:38;;;;;;;32.53;30.83;;;24.70;62.10;;;;;;4956212;28;20475;-78
2022/10/16 11:08:11;;;;;;;31.67;29.97;;;24.70;61.70;;;;;;4951688;28;20452;-78
2022/10/16 11:10:47;;;;;;;27.30;25.90;;;24.70;61.80;;;;;;4935930;29;20966;-78
2022/10/16 11:13:24;;;;;;;26.40;25.10;;;24.50;61.60;;;;;;4953843;29;20466;-78
2022/10/16 11:15:56;;;;;;;29.83;28.37;;;24.40;61.30;;;;;;4952868;28;20977;-78
2022/10/16 11:18:30;;;;;;;32.23;30.53;;;24.40;61.30;;;;;;4940862;28;20484;-78
2022/10/16 11:21:05;;;;;;;28.43;26.73;;;24.50;61.00;;;;;;4934450;29;20554;-78
2022/10/16 11:23:38;;;;;;;31.17;29.50;;;24.60;60.70;;;;;;4952066;28;20458;-78
2022/10/16 11:26:13;;;;;;;33.60;32.03;;;24.60;60.30;;;;;;4953667;29;20469;-78
2022/10/16 11:28:45;;;;;;;28.60;27.30;;;24.70;61.20;;;;;;4954906;28;20546;-78
2022/10/16 11:31:17;;;;;;;30.43;28.97;;;24.70;61.40;;;;;;4952334;28;20574;-78
2022/10/16 11:33:48;;;;;;;32.37;30.77;;;24.70;60.50;;;;;;4953240;28;20481;-78
2022/10/16 11:36:21;;;;;;;27.87;26.03;;;24.60;58.90;;;;;;4955584;28;20463;-77
2022/10/16 11:38:55;;;;;;;27.40;25.93;;;24.70;60.00;;;;;;4949574;28;20459;-77
2022/10/16 11:41:28;;;;;;;26.63;25.33;;;24.80;60.10;;;;;;4934585;28;20464;-77
2022/10/16 11:44:09;;;;;;;25.17;23.77;;;25.00;59.90;;;;;;4952183;28;20483;-77
2022/10/16 11:46:39;;;;;;;27.97;26.33;;;24.90;59.10;;;;;;4952358;29;20543;-77
2022/10/16 11:49:14;;;;;;;28.33;26.83;;;24.90;58.80;;;;;;4952712;29;20466;-78
2022/10/16 11:51:46;;;;;;;28.50;27.20;;;25.00;58.40;;;;;;4950077;28;20497;-77
2022/10/16 11:54:21;;;;;;;25.80;24.60;;;25.00;58.30;;;;;;4952656;28;20795;-77
2022/10/16 11:56:53;;;;;;;27.37;25.97;;;25.20;58.40;;;;;;4950767;29;20482;-77
2022/10/16 11:59:29;;;;;;;24.50;23.40;;;25.20;58.30;;;;;;4942036;29;20479;-78
2022/10/16 12:02:00;;;;;;;26.17;24.87;;;25.20;58.50;;;;;;4950981;29;20967;-77
2022/10/16 12:04:35;;;;;;;35.80;33.73;;;25.40;58.10;;;;;;4951579;28;20569;-77
2022/10/16 12:07:09;;;;;;;26.97;25.67;;;25.50;58.30;;;;;;4950881;28;20864;-77
2022/10/16 12:09:39;;;;;;;30.57;29.03;;;25.60;59.20;;;;;;4951840;29;20452;-78
2022/10/16 12:12:24;;;;;;;27.40;26.00;;;25.50;58.70;;;;;;4948544;28;20962;-77
2022/10/16 12:15:02;;;;;;;28.70;27.00;;;25.50;59.50;;;;;;4952244;28;20471;-78
2022/10/16 12:17:36;;;;;;;31.40;29.90;;;25.70;59.40;;;;;;4950615;28;20582;-77
2022/10/16 12:20:30;;;;;;;29.30;27.90;;;25.90;58.70;;;;;;4951063;29;20845;-77
2022/10/16 12:23:00;;;;;;;27.90;26.60;;;26.00;57.10;;;;;;4953005;28;20483;-77
2022/10/16 12:25:30;;;;;;;28.13;26.83;;;26.00;56.60;;;;;;4953024;29;20562;-77
2022/10/16 12:28:03;;;;;;;41.87;39.90;;;25.70;57.20;;;;;;4952459;28;20455;-77
2022/10/16 12:30:33;;;;;;;41.40;39.33;;;25.70;57.20;;;;;;4950039;28;20464;-77
2022/10/16 12:33:02;;;;;;;27.43;26.13;;;25.60;57.00;;;;;;4951645;29;20577;-78
2022/10/16 12:35:33;;;;;;;40.80;38.70;;;25.30;57.80;;;;;;4948987;28;21018;-78
2022/10/16 12:38:18;;;;;;;27.80;26.50;;;25.10;58.40;;;;;;4948117;28;20529;-78
2022/10/16 12:40:47;;;;;;;27.37;26.00;;;24.90;59.10;;;;;;4957738;29;20466;-79
2022/10/16 12:43:35;;;;;;;29.30;27.90;;;24.80;59.60;;;;;;4951660;29;20460;-76
2022/10/16 12:46:38;;;;;;;27.90;26.50;;;24.80;60.00;;;;;;4950616;29;20885;-76